Time;durP1;ratioP1;P1;durP2;ratioP2;P2;SDS_P1;SDS_P2;PMS_P1;PMS_P2;Temp;Humidity;BMP_temperature;BMP_pressure;BME280_temperature;BME280_humidity;BME280_pressure;Samples;Min_cycle;Max_cycle;Signal;HPM_P1;HPM_P2
2023/11/11 00:02:23;;;;;;;4.90;1.58;;;5.90;100.00;;;;;;4941849;28;20051;-78
2023/11/11 00:04:50;;;;;;;2.85;1.30;;;5.90;100.00;;;;;;4939164;28;20075;-79
2023/11/11 00:07:17;;;;;;;3.33;1.83;;;5.90;100.00;;;;;;4966670;28;20484;-79
2023/11/11 00:09:44;;;;;;;6.25;1.60;;;5.90;100.00;;;;;;4964518;28;20105;-78
2023/11/11 00:12:11;;;;;;;10.63;1.90;;;5.90;100.00;;;;;;4959636;28;20128;-78
2023/11/11 00:14:38;;;;;;;6.18;1.80;;;5.90;100.00;;;;;;4966563;28;20055;-79
2023/11/11 00:17:07;;;;;;;3.33;1.30;;;5.80;100.00;;;;;;4949818;28;20051;-79
2023/11/11 00:19:34;;;;;;;4.78;1.63;;;5.80;100.00;;;;;;4969180;28;20058;-79
2023/11/11 00:22:02;;;;;;;8.40;1.92;;;5.70;100.00;;;;;;4964171;28;20461;-80
2023/11/11 00:24:29;;;;;;;3.03;1.48;;;5.60;100.00;;;;;;4950208;28;20051;-80
2023/11/11 00:26:57;;;;;;;4.95;1.50;;;5.60;100.00;;;;;;4965217;28;20047;-79
2023/11/11 00:29:23;;;;;;;7.45;1.60;;;5.50;100.00;;;;;;4966702;28;20050;-79
2023/11/11 00:31:50;;;;;;;4.60;1.83;;;5.40;100.00;;;;;;4947555;28;20105;-79
2023/11/11 00:34:20;;;;;;;3.83;1.58;;;5.40;100.00;;;;;;4946057;28;20110;-79
2023/11/11 00:36:50;;;;;;;4.35;1.33;;;5.30;100.00;;;;;;4947193;28;20047;-80
2023/11/11 00:39:17;;;;;;;4.28;1.50;;;5.30;100.00;;;;;;4966258;28;20457;-79
2023/11/11 00:41:44;;;;;;;6.22;1.30;;;5.30;100.00;;;;;;4945191;28;20054;-78
2023/11/11 00:44:11;;;;;;;4.68;1.73;;;5.30;100.00;;;;;;4956964;28;20111;-79
2023/11/11 00:46:41;;;;;;;5.82;1.60;;;5.30;100.00;;;;;;4943243;28;20543;-79
2023/11/11 00:49:08;;;;;;;4.93;1.42;;;5.30;100.00;;;;;;4960257;28;20051;-78
2023/11/11 00:51:39;;;;;;;3.75;1.65;;;5.40;100.00;;;;;;4969001;28;20055;-79
2023/11/11 00:54:07;;;;;;;5.38;1.65;;;5.40;100.00;;;;;;4964006;28;20059;-79
2023/11/11 00:56:36;;;;;;;4.85;1.20;;;5.40;100.00;;;;;;4947384;28;20526;-79
2023/11/11 00:59:05;;;;;;;4.18;1.77;;;5.40;100.00;;;;;;4957659;28;20677;-79
2023/11/11 01:01:34;;;;;;;7.68;1.65;;;5.50;100.00;;;;;;4965779;28;20070;-78
2023/11/11 01:04:03;;;;;;;4.32;1.42;;;5.50;100.00;;;;;;4966140;28;20057;-79
2023/11/11 01:06:32;;;;;;;6.32;1.58;;;5.60;100.00;;;;;;4944548;28;20758;-78
2023/11/11 01:08:59;;;;;;;5.68;1.65;;;5.60;100.00;;;;;;4957654;28;20064;-78
2023/11/11 01:11:27;;;;;;;3.58;2.05;;;5.70;100.00;;;;;;4966980;28;20080;-79
2023/11/11 01:13:54;;;;;;;3.55;1.48;;;5.70;100.00;;;;;;4971762;28;20105;-79
2023/11/11 01:16:21;;;;;;;3.55;1.40;;;5.70;100.00;;;;;;4967250;28;20149;-79
2023/11/11 01:18:48;;;;;;;2.70;1.20;;;5.80;100.00;;;;;;4960304;28;20051;-79
2023/11/11 01:21:15;;;;;;;6.00;1.50;;;5.80;100.00;;;;;;4961767;28;20034;-79
2023/11/11 01:23:43;;;;;;;2.60;1.48;;;5.80;100.00;;;;;;4953046;28;20047;-79
2023/11/11 01:26:10;;;;;;;2.70;1.38;;;5.90;100.00;;;;;;4960202;28;20218;-79
2023/11/11 01:28:39;;;;;;;7.70;1.60;;;5.90;100.00;;;;;;4948942;28;20074;-79
2023/11/11 01:31:06;;;;;;;7.80;1.85;;;6.00;100.00;;;;;;4956337;28;20062;-78
2023/11/11 01:33:33;;;;;;;6.75;2.05;;;6.00;100.00;;;;;;4954868;28;20046;-78
2023/11/11 01:36:04;;;;;;;3.63;1.42;;;6.00;100.00;;;;;;4960529;28;20065;-78
2023/11/11 01:38:30;;;;;;;4.57;2.03;;;6.00;100.00;;;;;;4966702;28;20058;-78
2023/11/11 01:40:57;;;;;;;9.68;1.80;;;6.00;100.00;;;;;;4957516;28;20050;-78
2023/11/11 01:43:24;;;;;;;7.65;1.65;;;6.00;100.00;;;;;;4956343;28;20054;-78
2023/11/11 01:45:55;;;;;;;5.25;2.05;;;6.00;100.00;;;;;;4941319;28;20062;-78
2023/11/11 01:48:22;;;;;;;6.80;2.10;;;6.00;100.00;;;;;;4963874;28;20055;-79
2023/11/11 01:50:49;;;;;;;10.48;2.22;;;6.00;100.00;;;;;;4961967;28;20043;-80
2023/11/11 01:53:17;;;;;;;6.50;2.03;;;6.00;100.00;;;;;;4967571;28;20142;-79
2023/11/11 01:55:45;;;;;;;3.88;1.85;;;6.00;100.00;;;;;;4960339;28;20050;-79
2023/11/11 01:58:13;;;;;;;7.97;2.28;;;6.00;100.00;;;;;;4966278;28;20791;-79
2023/11/11 02:00:42;;;;;;;4.80;1.90;;;6.00;100.00;;;;;;4940966;29;20051;-79
2023/11/11 02:03:09;;;;;;;11.23;2.40;;;6.00;100.00;;;;;;4962838;28;20157;-80
2023/11/11 02:05:36;;;;;;;4.57;1.95;;;6.00;100.00;;;;;;4956696;28;21782;-79
2023/11/11 02:08:06;;;;;;;3.13;1.60;;;6.00;100.00;;;;;;4968550;28;20550;-80
2023/11/11 02:10:38;;;;;;;8.05;2.00;;;6.00;100.00;;;;;;4958889;28;20106;-79
2023/11/11 02:13:06;;;;;;;6.47;1.85;;;6.00;100.00;;;;;;4958180;28;20188;-79
2023/11/11 02:15:34;;;;;;;4.13;1.80;;;6.00;100.00;;;;;;4963857;28;20055;-79
2023/11/11 02:18:04;;;;;;;7.03;2.08;;;6.00;100.00;;;;;;4957148;28;20090;-79
2023/11/11 02:20:33;;;;;;;6.15;2.10;;;6.00;100.00;;;;;;4965512;28;20059;-79
2023/11/11 02:23:01;;;;;;;4.65;1.83;;;6.10;100.00;;;;;;4968856;28;20114;-79
2023/11/11 02:25:29;;;;;;;8.07;1.73;;;6.00;100.00;;;;;;4954495;28;20101;-79
2023/11/11 02:27:57;;;;;;;9.77;2.03;;;6.10;100.00;;;;;;4939692;28;20555;-79
2023/11/11 02:30:25;;;;;;;5.30;2.08;;;6.10;100.00;;;;;;4943835;28;20043;-79
2023/11/11 02:32:52;;;;;;;6.60;1.80;;;6.10;100.00;;;;;;4960299;28;20452;-79
2023/11/11 02:35:19;;;;;;;5.63;1.65;;;6.10;100.00;;;;;;4939848;28;20504;-79
2023/11/11 02:37:46;;;;;;;3.33;1.80;;;6.10;100.00;;;;;;4963851;28;20051;-80
2023/11/11 02:40:13;;;;;;;3.85;1.80;;;6.10;100.00;;;;;;4940904;28;20105;-79
2023/11/11 02:42:41;;;;;;;6.15;1.75;;;6.10;100.00;;;;;;4937176;28;20148;-71
2023/11/11 02:45:10;;;;;;;8.43;1.80;;;6.10;100.00;;;;;;4953769;28;20054;-71
2023/11/11 02:47:38;;;;;;;8.07;2.13;;;6.00;100.00;;;;;;4956635;28;20049;-71
2023/11/11 02:50:05;;;;;;;4.15;1.95;;;6.00;100.00;;;;;;4953763;28;20047;-71
2023/11/11 02:52:32;;;;;;;5.22;2.00;;;6.00;100.00;;;;;;4937858;28;20055;-71
2023/11/11 02:54:59;;;;;;;3.72;1.75;;;6.00;100.00;;;;;;4931300;28;20141;-71
2023/11/11 02:57:25;;;;;;;4.43;1.73;;;5.90;100.00;;;;;;4958995;28;20129;-71
2023/11/11 02:59:53;;;;;;;14.80;1.77;;;5.90;100.00;;;;;;4939237;28;20158;-71
2023/11/11 03:02:21;;;;;;;9.63;1.95;;;5.90;100.00;;;;;;4934657;28;20760;-71
2023/11/11 03:04:49;;;;;;;3.17;1.70;;;5.90;100.00;;;;;;4943946;28;20142;-71
2023/11/11 03:07:17;;;;;;;5.60;2.35;;;5.80;100.00;;;;;;4953140;28;20047;-71
2023/11/11 03:09:44;;;;;;;9.80;2.17;;;5.80;100.00;;;;;;4955772;28;20400;-71
2023/11/11 03:12:11;;;;;;;9.00;2.13;;;5.80;100.00;;;;;;4948471;28;20066;-70
2023/11/11 03:14:40;;;;;;;10.23;2.30;;;5.80;100.00;;;;;;4960506;28;20090;-71
2023/11/11 03:17:08;;;;;;;8.43;1.75;;;5.70;100.00;;;;;;4934881;28;20145;-71
2023/11/11 03:19:35;;;;;;;6.03;2.45;;;5.70;100.00;;;;;;4954407;28;20059;-71
2023/11/11 03:22:02;;;;;;;6.15;1.88;;;5.60;100.00;;;;;;4948942;28;20475;-71
2023/11/11 03:24:29;;;;;;;13.25;2.33;;;5.50;100.00;;;;;;4953034;28;20421;-71
2023/11/11 03:26:56;;;;;;;5.55;1.80;;;5.50;100.00;;;;;;4942012;28;20127;-71
2023/11/11 03:29:23;;;;;;;10.50;2.42;;;5.40;100.00;;;;;;4960514;28;20109;-71
2023/11/11 03:31:50;;;;;;;9.80;2.50;;;5.40;100.00;;;;;;4958165;28;20082;-71
2023/11/11 03:34:17;;;;;;;11.45;2.58;;;5.30;100.00;;;;;;4929911;28;20055;-71
2023/11/11 03:36:43;;;;;;;5.07;1.92;;;5.30;100.00;;;;;;4964927;28;20440;-71
2023/11/11 03:39:10;;;;;;;11.93;2.47;;;5.30;100.00;;;;;;4937148;28;20070;-71
2023/11/11 03:41:37;;;;;;;8.85;2.40;;;5.30;100.00;;;;;;4956709;28;20585;-71
2023/11/11 03:44:04;;;;;;;9.05;2.42;;;5.20;100.00;;;;;;4933647;28;20573;-71
2023/11/11 03:46:31;;;;;;;4.63;2.10;;;5.20;100.00;;;;;;4957961;28;20058;-71
2023/11/11 03:48:58;;;;;;;6.75;2.25;;;5.30;100.00;;;;;;4958247;28;20051;-71
2023/11/11 03:51:25;;;;;;;6.07;2.05;;;5.30;100.00;;;;;;4939014;28;20057;-71
2023/11/11 03:53:52;;;;;;;4.75;2.00;;;5.30;100.00;;;;;;4955903;28;20058;-71
2023/11/11 03:56:20;;;;;;;8.40;2.40;;;5.30;100.00;;;;;;4953206;28;20715;-71
2023/11/11 03:58:47;;;;;;;7.65;2.58;;;5.30;100.00;;;;;;4961654;28;20054;-71
2023/11/11 04:01:14;;;;;;;8.25;2.47;;;5.40;100.00;;;;;;4956072;28;20043;-71
2023/11/11 04:07:28;;;;;;;7.80;2.20;;;5.40;100.00;;;;;;4948417;23;20074;-79
2023/11/11 04:09:56;;;;;;;11.30;2.50;;;5.40;100.00;;;;;;4909624;29;20098;-79
2023/11/11 04:12:23;;;;;;;13.80;2.53;;;5.40;100.00;;;;;;4912688;29;20063;-79
2023/11/11 04:14:49;;;;;;;7.55;2.90;;;5.40;100.00;;;;;;4912097;29;20052;-79
2023/11/11 04:17:16;;;;;;;4.85;2.45;;;5.40;100.00;;;;;;4923783;29;20053;-79
2023/11/11 04:19:46;;;;;;;6.70;3.10;;;5.40;100.00;;;;;;4915778;29;20138;-78
2023/11/11 04:22:13;;;;;;;11.10;2.72;;;5.40;100.00;;;;;;4916749;29;20047;-79
2023/11/11 04:24:40;;;;;;;10.32;3.05;;;5.40;100.00;;;;;;4949416;23;20088;-71
2023/11/11 04:27:08;;;;;;;13.48;2.42;;;5.30;100.00;;;;;;4944223;28;20054;-71
2023/11/11 04:29:35;;;;;;;4.82;2.47;;;5.30;100.00;;;;;;4941991;28;20091;-71
2023/11/11 04:32:02;;;;;;;6.50;2.67;;;5.30;100.00;;;;;;4962042;28;20078;-79
2023/11/11 04:34:29;;;;;;;7.50;2.38;;;5.30;100.00;;;;;;4971188;28;20042;-78
2023/11/11 04:36:57;;;;;;;10.07;2.70;;;5.30;100.00;;;;;;4945010;28;20055;-78
2023/11/11 04:39:24;;;;;;;14.57;3.38;;;5.40;100.00;;;;;;4942496;28;20050;-78
2023/11/11 04:41:51;;;;;;;5.90;2.25;;;5.40;100.00;;;;;;4959861;28;20830;-79
2023/11/11 04:44:18;;;;;;;9.48;2.85;;;5.40;100.00;;;;;;4978557;28;20049;-78
2023/11/11 04:46:45;;;;;;;12.45;3.05;;;5.40;100.00;;;;;;4972559;28;20935;-78
2023/11/11 04:49:13;;;;;;;10.93;2.92;;;5.40;100.00;;;;;;4941592;28;20046;-78
2023/11/11 04:51:40;;;;;;;4.95;2.58;;;5.40;100.00;;;;;;4967693;28;20051;-78
2023/11/11 04:54:07;;;;;;;6.18;2.58;;;5.50;100.00;;;;;;4957732;28;20066;-78
2023/11/11 04:56:34;;;;;;;9.52;2.65;;;5.50;100.00;;;;;;4956865;28;20491;-78
2023/11/11 04:59:04;;;;;;;5.60;3.00;;;5.50;100.00;;;;;;4939510;28;20055;-78
2023/11/11 05:01:30;;;;;;;4.38;2.42;;;5.50;100.00;;;;;;4941765;28;20070;-78
2023/11/11 05:03:58;;;;;;;8.68;2.55;;;5.50;100.00;;;;;;4950991;28;20054;-79
2023/11/11 05:06:27;;;;;;;8.25;2.70;;;5.50;100.00;;;;;;4965341;28;20050;-78
2023/11/11 05:08:54;;;;;;;9.07;2.90;;;5.50;100.00;;;;;;4960466;28;20079;-78
2023/11/11 05:11:21;;;;;;;9.23;3.03;;;5.50;100.00;;;;;;4966726;28;20047;-79
2023/11/11 05:13:48;;;;;;;9.32;3.03;;;5.50;100.00;;;;;;4961733;28;20043;-78
2023/11/11 05:16:27;;;;;;;4.47;2.78;;;5.50;100.00;;;;;;4967915;28;20105;-79
2023/11/11 05:18:54;;;;;;;8.52;2.78;;;5.50;100.00;;;;;;4947119;28;20047;-78
2023/11/11 05:21:21;;;;;;;7.50;2.67;;;5.50;100.00;;;;;;4966805;28;20130;-78
2023/11/11 05:23:48;;;;;;;15.10;2.88;;;5.50;100.00;;;;;;4955777;28;20046;-78
2023/11/11 05:26:15;;;;;;;7.75;2.55;;;5.50;100.00;;;;;;4972194;28;20066;-78
2023/11/11 05:28:42;;;;;;;6.18;2.58;;;5.60;100.00;;;;;;4956378;28;20538;-79
2023/11/11 05:31:10;;;;;;;11.60;3.47;;;5.60;100.00;;;;;;4941436;28;20480;-80
2023/11/11 05:33:37;;;;;;;6.40;3.17;;;5.60;100.00;;;;;;4961585;28;20051;-78
2023/11/11 05:36:13;;;;;;;9.57;2.92;;;5.60;100.00;;;;;;4947582;28;20050;-78
2023/11/11 05:38:40;;;;;;;12.15;2.92;;;5.60;100.00;;;;;;4963285;28;20054;-79
2023/11/11 05:41:07;;;;;;;11.18;3.38;;;5.60;100.00;;;;;;4946175;28;20067;-78
2023/11/11 05:43:34;;;;;;;8.52;3.00;;;5.60;100.00;;;;;;4961429;28;20047;-79
2023/11/11 05:46:01;;;;;;;9.63;3.03;;;5.60;100.00;;;;;;4969215;28;20051;-79
2023/11/11 05:48:28;;;;;;;5.45;2.85;;;5.60;100.00;;;;;;4948451;28;20051;-78
2023/11/11 05:50:55;;;;;;;12.07;2.75;;;5.60;100.00;;;;;;4943441;28;20050;-71
2023/11/11 05:53:22;;;;;;;8.68;4.20;;;5.60;100.00;;;;;;4952911;28;20055;-71
2023/11/11 05:55:50;;;;;;;7.68;3.88;;;5.60;100.00;;;;;;4952342;28;20567;-71
2023/11/11 05:58:16;;;;;;;6.15;3.17;;;5.60;100.00;;;;;;4954786;28;20481;-70
2023/11/11 06:00:43;;;;;;;16.88;3.83;;;5.60;100.00;;;;;;4953161;28;20059;-71
2023/11/11 06:03:10;;;;;;;8.80;3.30;;;5.60;100.00;;;;;;4956539;28;20127;-71
2023/11/11 06:05:37;;;;;;;8.52;3.42;;;5.60;100.00;;;;;;4959233;28;20486;-71
2023/11/11 06:08:04;;;;;;;12.57;3.47;;;5.60;100.00;;;;;;4963500;28;20130;-70
2023/11/11 06:10:44;;;;;;;7.95;3.75;;;5.60;100.00;;;;;;4961562;28;20083;-71
2023/11/11 06:13:11;;;;;;;7.07;3.72;;;5.60;100.00;;;;;;4955770;28;20139;-70
2023/11/11 06:15:38;;;;;;;11.07;3.05;;;5.60;100.00;;;;;;4958949;28;20168;-70
2023/11/11 06:18:06;;;;;;;10.05;2.90;;;5.60;100.00;;;;;;4943811;28;20740;-70
2023/11/11 06:20:33;;;;;;;7.97;3.38;;;5.60;100.00;;;;;;4952349;28;20480;-71
2023/11/11 06:23:00;;;;;;;5.55;2.45;;;5.60;100.00;;;;;;4938057;28;20059;-70
2023/11/11 06:25:31;;;;;;;8.00;2.80;;;5.60;100.00;;;;;;4952769;28;20140;-70
2023/11/11 06:28:00;;;;;;;11.00;3.45;;;5.60;100.00;;;;;;4953696;28;20050;-70
2023/11/11 06:30:27;;;;;;;8.38;3.20;;;5.50;100.00;;;;;;4953602;28;20047;-71
2023/11/11 06:32:56;;;;;;;5.93;3.28;;;5.50;100.00;;;;;;4933604;28;20393;-71
2023/11/11 06:35:26;;;;;;;7.97;3.13;;;5.50;100.00;;;;;;4951947;28;20047;-71
2023/11/11 06:37:53;;;;;;;7.65;3.22;;;5.50;100.00;;;;;;4951793;28;20412;-71
2023/11/11 06:40:20;;;;;;;5.50;2.75;;;5.50;100.00;;;;;;4958770;28;20050;-71
2023/11/11 06:42:48;;;;;;;16.25;3.78;;;5.50;100.00;;;;;;4953590;28;20818;-70
2023/11/11 06:45:16;;;;;;;9.60;3.17;;;5.50;100.00;;;;;;4966125;28;20069;-71
2023/11/11 06:47:42;;;;;;;9.88;3.22;;;5.50;100.00;;;;;;4956727;28;20133;-70
2023/11/11 06:50:09;;;;;;;10.27;3.42;;;5.40;100.00;;;;;;4945705;28;20375;-71
2023/11/11 06:52:37;;;;;;;10.25;3.15;;;5.40;100.00;;;;;;4942397;28;20499;-72
2023/11/11 06:55:05;;;;;;;10.30;3.55;;;5.40;100.00;;;;;;4937633;28;20109;-73
2023/11/11 06:57:32;;;;;;;14.73;3.65;;;5.30;100.00;;;;;;4957062;28;20558;-72
2023/11/11 06:59:58;;;;;;;8.80;3.22;;;5.30;100.00;;;;;;4937240;28;20054;-76
2023/11/11 07:02:26;;;;;;;6.82;2.70;;;5.30;100.00;;;;;;4935860;28;20047;-75
2023/11/11 07:04:57;;;;;;;10.18;3.70;;;5.30;100.00;;;;;;4938404;28;20050;-74
2023/11/11 07:07:27;;;;;;;15.93;3.75;;;5.20;100.00;;;;;;4953740;28;20551;-72
2023/11/11 07:09:54;;;;;;;11.50;3.85;;;5.20;100.00;;;;;;4954330;28;20157;-73
2023/11/11 07:12:22;;;;;;;8.57;3.67;;;5.20;100.00;;;;;;4953948;28;20047;-73
2023/11/11 07:14:49;;;;;;;11.00;3.63;;;5.20;100.00;;;;;;4937270;28;20412;-72
2023/11/11 07:17:16;;;;;;;15.07;4.13;;;5.30;100.00;;;;;;4952422;28;20082;-74
2023/11/11 07:19:43;;;;;;;12.07;3.50;;;5.30;100.00;;;;;;4954193;28;20090;-74
2023/11/11 07:22:10;;;;;;;12.82;3.38;;;5.30;100.00;;;;;;4951611;28;20494;-74
2023/11/11 07:24:41;;;;;;;16.80;3.67;;;5.40;100.00;;;;;;4953791;28;20138;-73
2023/11/11 07:27:08;;;;;;;8.40;3.72;;;5.40;100.00;;;;;;4952574;28;20066;-75
2023/11/11 07:29:35;;;;;;;10.32;3.45;;;5.40;100.00;;;;;;4954495;28;20198;-75
2023/11/11 07:32:02;;;;;;;15.55;3.90;;;5.40;100.00;;;;;;4936050;28;20061;-75
2023/11/11 07:34:29;;;;;;;8.80;3.88;;;5.40;100.00;;;;;;4953024;28;20082;-71
2023/11/11 07:36:56;;;;;;;8.88;3.42;;;5.40;100.00;;;;;;4952696;28;20125;-75
2023/11/11 07:39:22;;;;;;;9.32;3.40;;;5.40;100.00;;;;;;4957995;28;20118;-75
2023/11/11 07:41:50;;;;;;;11.85;3.22;;;5.40;100.00;;;;;;4940708;28;20059;-74
2023/11/11 07:44:17;;;;;;;15.40;3.63;;;5.40;100.00;;;;;;4941825;28;20122;-75
2023/11/11 07:46:45;;;;;;;7.00;3.17;;;5.50;100.00;;;;;;4936872;28;20142;-74
2023/11/11 07:49:13;;;;;;;10.77;3.13;;;5.60;100.00;;;;;;4933926;28;20051;-74
2023/11/11 07:51:40;;;;;;;11.98;3.67;;;5.70;100.00;;;;;;4952788;28;20097;-75
2023/11/11 07:54:08;;;;;;;8.55;3.38;;;5.80;100.00;;;;;;4955929;28;20165;-74
2023/11/11 07:56:36;;;;;;;9.65;3.35;;;5.90;100.00;;;;;;4962389;28;20149;-72
2023/11/11 07:59:03;;;;;;;17.80;3.78;;;5.90;100.00;;;;;;4942949;28;20050;-74
2023/11/11 08:01:30;;;;;;;9.05;3.35;;;5.90;100.00;;;;;;4950827;28;20082;-74
2023/11/11 08:03:57;;;;;;;12.23;3.92;;;6.00;100.00;;;;;;4951137;28;20055;-75
2023/11/11 08:06:27;;;;;;;21.92;4.30;;;6.00;100.00;;;;;;4958941;28;20833;-74
2023/11/11 08:08:54;;;;;;;21.40;5.35;;;6.10;100.00;;;;;;4937894;28;20047;-75
2023/11/11 08:11:22;;;;;;;11.05;3.47;;;6.10;100.00;;;;;;4941320;28;20047;-73
2023/11/11 08:13:49;;;;;;;9.80;3.30;;;6.20;100.00;;;;;;4936782;28;20146;-73
2023/11/11 08:16:18;;;;;;;10.82;3.40;;;6.20;100.00;;;;;;4955023;28;20062;-73
2023/11/11 08:18:46;;;;;;;5.68;3.03;;;6.20;100.00;;;;;;4959365;28;20612;-73
2023/11/11 08:21:19;;;;;;;7.70;3.17;;;6.20;100.00;;;;;;4957885;28;20038;-73
2023/11/11 08:23:46;;;;;;;10.15;3.45;;;6.20;100.00;;;;;;4938530;28;20046;-73
2023/11/11 08:26:13;;;;;;;9.02;3.33;;;6.20;100.00;;;;;;4935463;28;20130;-73
2023/11/11 08:28:41;;;;;;;12.95;3.42;;;6.30;100.00;;;;;;4963635;23;20043;-78
2023/11/11 08:31:08;;;;;;;10.35;3.80;;;6.30;100.00;;;;;;4922413;29;20051;-79
2023/11/11 08:33:35;;;;;;;8.35;3.47;;;6.30;100.00;;;;;;4920914;29;20127;-79
2023/11/11 08:36:03;;;;;;;10.75;3.90;;;6.40;100.00;;;;;;4927403;28;20063;-78
2023/11/11 08:38:30;;;;;;;6.72;3.00;;;6.40;100.00;;;;;;4932631;29;20055;-79
2023/11/11 08:40:57;;;;;;;11.52;3.00;;;6.40;100.00;;;;;;4939589;28;20051;-78
2023/11/11 08:43:25;;;;;;;12.95;3.38;;;6.40;100.00;;;;;;4919790;29;20063;-78
2023/11/11 08:45:52;;;;;;;10.35;3.28;;;6.50;100.00;;;;;;4939777;28;20718;-78
2023/11/11 08:48:19;;;;;;;10.57;3.75;;;6.40;100.00;;;;;;4942282;28;20054;-78
2023/11/11 08:50:47;;;;;;;9.88;3.22;;;6.50;100.00;;;;;;4916938;29;20569;-78
2023/11/11 08:53:14;;;;;;;9.45;3.50;;;6.50;100.00;;;;;;4924630;28;20107;-78
2023/11/11 08:55:41;;;;;;;14.60;3.75;;;6.50;100.00;;;;;;4922080;29;20059;-78
2023/11/11 08:58:08;;;;;;;8.80;3.90;;;6.50;100.00;;;;;;4919543;28;20060;-78
2023/11/11 09:00:35;;;;;;;9.02;3.03;;;6.60;100.00;;;;;;4929504;29;20051;-78
2023/11/11 09:03:04;;;;;;;10.07;3.40;;;6.60;100.00;;;;;;4939069;28;20047;-78
2023/11/11 09:05:31;;;;;;;10.00;3.53;;;6.60;100.00;;;;;;4929520;29;20145;-78
2023/11/11 09:07:58;;;;;;;13.93;3.25;;;6.70;100.00;;;;;;4938578;28;20804;-78
2023/11/11 09:10:31;;;;;;;8.95;3.28;;;6.70;100.00;;;;;;4926765;28;20455;-79
2023/11/11 09:12:58;;;;;;;7.43;2.95;;;6.70;100.00;;;;;;4931037;28;20488;-79
2023/11/11 09:15:25;;;;;;;12.40;3.33;;;6.80;100.00;;;;;;4943594;28;20054;-79
2023/11/11 09:17:52;;;;;;;8.93;3.42;;;6.90;100.00;;;;;;4941858;28;20129;-79
2023/11/11 09:20:21;;;;;;;10.75;3.40;;;7.00;100.00;;;;;;4941376;28;20170;-79
2023/11/11 09:22:49;;;;;;;12.82;3.70;;;7.10;100.00;;;;;;4938943;28;20071;-79
2023/11/11 09:25:16;;;;;;;9.30;2.97;;;7.20;100.00;;;;;;4947508;28;20122;-74
2023/11/11 09:27:43;;;;;;;16.70;3.55;;;7.20;100.00;;;;;;4922297;29;20097;-74
2023/11/11 09:30:11;;;;;;;16.15;3.17;;;7.30;100.00;;;;;;4924990;28;20135;-79
2023/11/11 09:32:38;;;;;;;5.97;3.33;;;7.40;100.00;;;;;;4927178;29;20062;-78
2023/11/11 09:35:06;;;;;;;15.93;3.13;;;7.50;100.00;;;;;;4922865;28;20090;-79
2023/11/11 09:37:33;;;;;;;7.18;3.13;;;7.60;100.00;;;;;;4926479;29;20097;-74
2023/11/11 09:40:06;;;;;;;12.13;3.47;;;7.80;100.00;;;;;;4927215;28;20126;-74
2023/11/11 09:42:33;;;;;;;13.13;3.08;;;7.90;100.00;;;;;;4936483;28;20510;-74
2023/11/11 09:45:02;;;;;;;12.25;2.80;;;8.00;100.00;;;;;;4923334;28;20057;-72
2023/11/11 09:47:33;;;;;;;11.02;2.90;;;8.10;100.00;;;;;;4929991;29;20797;-74
2023/11/11 09:50:00;;;;;;;11.88;2.97;;;8.10;100.00;;;;;;4933473;28;20131;-74
2023/11/11 09:52:31;;;;;;;12.10;2.83;;;8.20;100.00;;;;;;4941588;28;20114;-74
2023/11/11 09:54:59;;;;;;;8.10;3.30;;;8.30;100.00;;;;;;4939247;28;20047;-74
2023/11/11 09:57:29;;;;;;;14.88;2.80;;;8.30;100.00;;;;;;4920110;29;20054;-74
2023/11/11 09:59:57;;;;;;;13.68;3.78;;;8.50;100.00;;;;;;4939024;28;20055;-74
2023/11/11 10:02:26;;;;;;;9.38;3.50;;;8.50;100.00;;;;;;4942040;28;20157;-74
2023/11/11 10:04:54;;;;;;;9.43;3.35;;;8.60;100.00;;;;;;4926887;29;20051;-74
2023/11/11 10:07:24;;;;;;;9.25;2.63;;;8.80;100.00;;;;;;4942485;28;20055;-74
2023/11/11 10:09:55;;;;;;;4.63;2.92;;;8.90;100.00;;;;;;4944718;28;20058;-74
2023/11/11 10:12:24;;;;;;;21.05;2.97;;;8.80;100.00;;;;;;4931329;23;20062;-78
2023/11/11 10:14:51;;;;;;;13.23;2.30;;;8.80;100.00;;;;;;4921735;29;20149;-78
2023/11/11 10:17:18;;;;;;;5.70;2.60;;;8.70;100.00;;;;;;4939880;28;20497;-78
2023/11/11 10:19:46;;;;;;;7.50;2.65;;;8.70;100.00;;;;;;4931347;29;20047;-79
2023/11/11 10:22:25;;;;;;;5.85;2.63;;;8.70;100.00;;;;;;4946656;28;20047;-78
2023/11/11 10:24:52;;;;;;;8.88;2.83;;;8.70;100.00;;;;;;4947525;28;20469;-79
2023/11/11 10:27:19;;;;;;;8.75;2.78;;;8.70;100.00;;;;;;4934828;28;20115;-78
2023/11/11 10:29:47;;;;;;;11.65;3.50;;;8.90;100.00;;;;;;4945152;28;20051;-78
2023/11/11 10:32:16;;;;;;;9.63;3.08;;;9.10;100.00;;;;;;4924905;28;20054;-79
2023/11/11 10:34:44;;;;;;;7.13;2.92;;;9.10;100.00;;;;;;4941488;28;20055;-78
2023/11/11 10:37:11;;;;;;;10.77;2.80;;;9.20;100.00;;;;;;4931021;28;20052;-78
2023/11/11 10:39:39;;;;;;;7.00;2.75;;;9.30;100.00;;;;;;4943443;28;20055;-79
2023/11/11 10:42:06;;;;;;;8.00;3.28;;;9.50;100.00;;;;;;4940143;28;20086;-80
2023/11/11 10:44:33;;;;;;;10.68;3.13;;;9.60;100.00;;;;;;4927323;28;20110;-78
2023/11/11 10:47:01;;;;;;;9.15;2.72;;;9.70;100.00;;;;;;4941893;28;20535;-79
2023/11/11 10:49:28;;;;;;;8.90;2.85;;;9.70;100.00;;;;;;4945438;28;20768;-78
2023/11/11 10:51:58;;;;;;;11.60;2.83;;;9.90;100.00;;;;;;4926544;28;20066;-79
2023/11/11 10:54:26;;;;;;;11.85;2.60;;;10.00;100.00;;;;;;4920783;29;20508;-79
2023/11/11 10:56:56;;;;;;;11.48;3.35;;;10.00;100.00;;;;;;4938408;28;20050;-79
2023/11/11 10:59:24;;;;;;;7.30;2.83;;;9.90;100.00;;;;;;4939987;28;20139;-78
2023/11/11 11:01:53;;;;;;;12.68;3.22;;;9.90;100.00;;;;;;4941349;28;20050;-78
2023/11/11 11:04:26;;;;;;;6.50;2.40;;;9.90;100.00;;;;;;4943536;28;20091;-78
2023/11/11 11:07:07;;;;;;;7.35;3.10;;;9.90;100.00;;;;;;4945079;28;20057;-74
2023/11/11 11:09:54;;;;;;;9.13;2.80;;;9.90;100.00;;;;;;4913971;29;20051;-74
2023/11/11 11:12:48;;;;;;;13.25;3.85;;;9.90;100.00;;;;;;4921272;29;20055;-74
2023/11/11 11:15:15;;;;;;;9.68;2.83;;;10.00;100.00;;;;;;4922835;28;20445;-74
2023/11/11 11:17:47;;;;;;;7.80;2.65;;;9.80;100.00;;;;;;4925438;29;20129;-74
2023/11/11 11:20:18;;;;;;;6.20;2.60;;;9.90;100.00;;;;;;4925766;28;20052;-74
2023/11/11 11:22:47;;;;;;;9.50;3.08;;;10.10;100.00;;;;;;4941843;28;20712;-74
2023/11/11 11:25:37;;;;;;;10.43;2.70;;;10.20;100.00;;;;;;4941603;28;21176;-79
2023/11/11 11:28:14;;;;;;;9.52;2.90;;;10.30;100.00;;;;;;4943114;28;20058;-78
2023/11/11 11:30:53;;;;;;;7.28;2.20;;;10.30;100.00;;;;;;4944962;28;20039;-79
2023/11/11 11:33:23;;;;;;;8.05;2.47;;;10.30;100.00;;;;;;4919853;29;20051;-78
2023/11/11 11:35:53;;;;;;;12.90;2.45;;;10.30;100.00;;;;;;4942090;28;20121;-78
2023/11/11 11:38:27;;;;;;;10.70;3.60;;;10.30;100.00;;;;;;4933982;28;20118;-79
2023/11/11 11:41:02;;;;;;;7.10;2.40;;;10.60;100.00;;;;;;4928161;29;20054;-79
2023/11/11 11:43:31;;;;;;;7.90;2.03;;;10.90;100.00;;;;;;4941764;28;20047;-78
2023/11/11 11:45:59;;;;;;;10.02;2.47;;;10.90;100.00;;;;;;4920788;28;20501;-78
2023/11/11 11:48:31;;;;;;;5.95;2.30;;;11.00;100.00;;;;;;4936041;28;20067;-78
2023/11/11 11:51:04;;;;;;;8.52;2.28;;;11.00;100.00;;;;;;4939376;28;20071;-78
2023/11/11 11:53:31;;;;;;;6.15;2.10;;;11.00;100.00;;;;;;4929231;28;20107;-79
2023/11/11 11:55:58;;;;;;;7.30;2.58;;;10.70;100.00;;;;;;4945237;28;20111;-78
2023/11/11 11:58:25;;;;;;;5.10;2.10;;;10.60;100.00;;;;;;4915667;29;20056;-79
2023/11/11 12:00:53;;;;;;;10.18;1.85;;;10.40;100.00;;;;;;4927997;29;20843;-78
2023/11/11 12:03:20;;;;;;;12.52;2.13;;;10.40;100.00;;;;;;4935556;28;20063;-78
2023/11/11 12:05:51;;;;;;;7.47;2.10;;;10.50;100.00;;;;;;4946038;28;20492;-74
2023/11/11 12:08:18;;;;;;;8.70;1.52;;;10.40;100.00;;;;;;4932886;28;20106;-78
2023/11/11 12:10:47;;;;;;;7.43;2.25;;;10.40;100.00;;;;;;4922437;29;20094;-78
2023/11/11 12:13:14;;;;;;;10.45;2.10;;;10.40;100.00;;;;;;4923302;28;20134;-78
2023/11/11 12:15:51;;;;;;;5.20;2.30;;;10.40;100.00;;;;;;4927770;29;20062;-78
2023/11/11 12:18:19;;;;;;;4.60;1.75;;;10.30;100.00;;;;;;4929884;28;20051;-78
2023/11/11 12:20:47;;;;;;;8.30;1.80;;;10.30;100.00;;;;;;4926608;29;20043;-78
2023/11/11 12:23:16;;;;;;;2.88;1.75;;;10.30;100.00;;;;;;4930745;28;20142;-78
2023/11/11 12:25:43;;;;;;;5.95;2.30;;;10.20;100.00;;;;;;4938405;28;20052;-78
2023/11/11 12:28:10;;;;;;;5.72;2.13;;;10.10;100.00;;;;;;4943450;28;20167;-78
2023/11/11 12:30:37;;;;;;;7.13;2.17;;;10.00;100.00;;;;;;4916138;29;20095;-78
2023/11/11 12:33:08;;;;;;;10.23;2.20;;;10.00;100.00;;;;;;4921114;28;20160;-78
2023/11/11 12:35:40;;;;;;;8.95;2.15;;;10.10;100.00;;;;;;4941215;28;20048;-78
2023/11/11 12:38:28;;;;;;;13.05;2.38;;;10.20;100.00;;;;;;4945021;28;20059;-78
2023/11/11 12:40:59;;;;;;;2.58;1.90;;;10.30;100.00;;;;;;4941183;28;20047;-78
2023/11/11 12:43:27;;;;;;;7.63;1.90;;;10.20;100.00;;;;;;4924282;29;20048;-78
2023/11/11 12:45:54;;;;;;;11.85;2.53;;;10.00;100.00;;;;;;4940702;29;20860;-78
2023/11/11 12:48:30;;;;;;;8.95;2.22;;;9.90;100.00;;;;;;4923039;29;20047;-78
2023/11/11 12:50:58;;;;;;;9.45;2.58;;;9.90;100.00;;;;;;4944016;28;20047;-78
2023/11/11 12:53:25;;;;;;;10.77;2.45;;;10.00;100.00;;;;;;4954103;28;20125;-78